Time;durP1;ratioP1;P1;durP2;ratioP2;P2;SDS_P1;SDS_P2;PMS_P1;PMS_P2;Temp;Humidity;BMP_temperature;BMP_pressure;BME280_temperature;BME280_humidity;BME280_pressure;Samples;Min_cycle;Max_cycle;Signal;HPM_P1;HPM_P2
2021/07/24 00:01:28;;;;;;;;;12.25;10.50;;;;;25.45;42.35;100359.94;5018067;28;45767;-91
2021/07/24 00:03:54;;;;;;;;;12.50;11.50;;;;;25.44;42.89;100349.44;5000360;28;48487;-90
2021/07/24 00:06:19;;;;;;;;;10.75;10.50;;;;;25.45;43.17;100346.63;5000366;28;45230;-91
2021/07/24 00:08:44;;;;;;;;;13.25;13.00;;;;;25.44;42.75;100352.94;5018500;28;45292;-92
2021/07/24 00:11:10;;;;;;;;;9.00;8.75;;;;;25.42;43.22;100362.94;5017350;28;45427;-91
2021/07/24 00:13:38;;;;;;;;;12.75;12.25;;;;;25.42;42.54;100368.28;5000396;28;46450;-91
2021/07/24 00:16:04;;;;;;;;;13.25;12.50;;;;;25.40;42.70;100362.25;5000903;28;46022;-91
2021/07/24 00:18:31;;;;;;;;;13.75;12.25;;;;;25.37;42.61;100364.41;5000357;28;45458;-90
2021/07/24 00:20:57;;;;;;;;;11.25;11.25;;;;;25.39;43.04;100362.41;4981063;28;45345;-91
2021/07/24 00:23:22;;;;;;;;;13.75;11.25;;;;;25.37;42.37;100380.38;4980639;28;47183;-91
2021/07/24 00:25:48;;;;;;;;;15.50;12.00;;;;;25.35;42.61;100383.22;4996996;28;45417;-91
2021/07/24 00:28:13;;;;;;;;;10.25;9.75;;;;;25.31;42.22;100360.56;5012932;28;45503;-91
2021/07/24 00:30:40;;;;;;;;;14.25;13.50;;;;;25.33;42.30;100363.91;5018319;28;45876;-91
2021/07/24 00:33:07;;;;;;;;;11.00;9.00;;;;;25.31;42.57;100355.22;5000487;28;48707;-91
2021/07/24 00:35:33;;;;;;;;;11.75;11.75;;;;;25.29;42.18;100362.56;5017854;28;45372;-91
2021/07/24 00:38:00;;;;;;;;;16.33;15.00;;;;;25.25;42.37;100374.50;5000005;28;45408;-92
2021/07/24 00:40:28;;;;;;;;;12.00;11.33;;;;;25.20;42.46;100391.81;5017949;28;45526;-89
2021/07/24 00:42:55;;;;;;;;;13.00;12.50;;;;;25.13;42.90;100404.09;5000156;28;47435;-90
2021/07/24 00:45:21;;;;;;;;;13.00;12.50;;;;;25.07;42.68;100383.44;5000103;28;44899;-91
2021/07/24 00:47:52;;;;;;;;;15.50;13.25;;;;;25.01;42.66;100397.38;5017523;28;45325;-91
2021/07/24 00:50:17;;;;;;;;;12.33;11.67;;;;;24.95;43.28;100397.00;4998542;28;45344;-92
2021/07/24 00:52:43;;;;;;;;;13.50;13.25;;;;;24.94;43.00;100382.03;5000227;28;47852;-92
2021/07/24 00:55:13;;;;;;;;;13.00;11.50;;;;;24.98;43.10;100387.88;5000354;28;45339;-91
2021/07/24 00:57:46;;;;;;;;;13.75;13.75;;;;;25.01;43.26;100379.59;5000314;28;45387;-92
2021/07/24 01:00:13;;;;;;;;;14.25;12.50;;;;;25.03;43.10;100379.41;5017862;28;45257;-92
2021/07/24 01:02:39;;;;;;;;;12.00;12.00;;;;;25.02;42.85;100378.59;5016497;28;47779;-91
2021/07/24 01:05:06;;;;;;;;;13.00;13.00;;;;;25.06;43.23;100381.75;5017873;28;45568;-91
2021/07/24 01:07:38;;;;;;;;;14.00;13.25;;;;;25.07;43.23;100380.75;5017824;28;45427;-91
2021/07/24 01:10:04;;;;;;;;;15.33;15.33;;;;;25.06;43.61;100368.47;5001237;28;45375;-91
2021/07/24 01:12:32;;;;;;;;;12.33;11.33;;;;;25.05;43.22;100354.31;4999790;28;48494;-91
2021/07/24 01:14:58;;;;;;;;;12.00;12.00;;;;;25.06;43.68;100353.34;4999509;28;45412;-91
2021/07/24 01:17:23;;;;;;;;;12.75;11.25;;;;;25.07;43.55;100351.50;5000036;28;45312;-91
2021/07/24 01:19:49;;;;;;;;;15.50;13.75;;;;;25.06;43.24;100356.00;5018033;28;45471;-91
2021/07/24 01:22:14;;;;;;;;;12.75;12.75;;;;;25.05;43.31;100356.97;4999616;28;47065;-91
2021/07/24 01:24:39;;;;;;;;;12.00;11.00;;;;;25.00;44.19;100364.63;4999933;28;45288;-91
2021/07/24 01:27:09;;;;;;;;;13.25;12.75;;;;;24.98;43.55;100366.59;5000179;28;45337;-91
2021/07/24 01:29:38;;;;;;;;;16.00;14.00;;;;;24.98;43.63;100374.56;5000153;28;45273;-91
2021/07/24 01:32:04;;;;;;;;;15.33;14.00;;;;;24.97;44.13;100369.41;5015778;28;47337;-91
2021/07/24 01:34:30;;;;;;;;;12.33;11.67;;;;;24.95;43.55;100372.25;5017588;28;45329;-91
2021/07/24 01:36:55;;;;;;;;;14.67;14.33;;;;;24.90;44.35;100379.88;4999636;28;45403;-91
2021/07/24 01:39:20;;;;;;;;;12.75;12.00;;;;;24.86;44.51;100383.84;5016382;28;45750;-91
2021/07/24 01:41:46;;;;;;;;;12.00;12.00;;;;;24.78;44.41;100379.25;5015625;28;47523;-91
2021/07/24 01:44:12;;;;;;;;;15.00;13.25;;;;;24.74;44.51;100369.91;5015656;28;45978;-91
2021/07/24 01:46:38;;;;;;;;;13.25;13.25;;;;;24.71;44.66;100372.91;4999644;28;45452;-92
2021/07/24 01:54:30;;;;;;;;;15.67;13.33;;;;;24.60;46.97;100380.16;5000671;28;45284;-91
2021/07/24 01:56:56;;;;;;;;;11.00;10.25;;;;;24.57;47.27;100377.78;4983183;28;45269;-92
2021/07/24 01:59:31;;;;;;;;;15.50;13.25;;;;;24.52;47.84;100380.94;4983182;28;45570;-91
2021/07/24 02:01:56;;;;;;;;;13.75;12.75;;;;;24.48;48.00;100382.22;4982812;28;48247;-91
2021/07/24 02:04:27;;;;;;;;;12.25;12.00;;;;;24.46;48.98;100373.59;4998065;28;45424;-91
2021/07/24 02:06:52;;;;;;;;;13.50;11.50;;;;;24.44;48.29;100388.84;5002320;28;45273;-91
2021/07/24 02:09:18;;;;;;;;;13.67;10.67;;;;;24.42;49.06;100388.16;5002668;28;44880;-91
2021/07/24 02:11:45;;;;;;;;;11.25;10.50;;;;;24.42;49.53;100397.00;5002555;28;47400;-91
2021/07/24 02:14:11;;;;;;;;;12.00;10.50;;;;;24.37;49.76;100401.09;5006788;28;45457;-91
2021/07/24 02:16:38;;;;;;;;;11.00;10.00;;;;;24.35;49.84;100408.41;5018827;28;45353;-91
2021/07/24 02:19:04;;;;;;;;;10.25;9.25;;;;;24.35;50.22;100422.50;5002595;28;45556;-91
2021/07/24 02:21:31;;;;;;;;;8.00;7.00;;;;;24.32;49.84;100427.31;5019049;28;46942;-91
2021/07/24 02:23:56;;;;;;;;;7.00;5.33;;;;;24.26;49.59;100428.75;5001282;28;45560;-91
2021/07/24 02:26:21;;;;;;;;;6.00;6.00;;;;;24.24;49.21;100436.88;5001932;28;45570;-90
2021/07/24 02:28:47;;;;;;;;;7.00;7.00;;;;;24.18;49.33;100429.53;5018790;28;45300;-90
2021/07/24 02:31:12;;;;;;;;;5.00;4.67;;;;;24.18;49.38;100439.31;5019343;28;46190;-90
2021/07/24 02:33:38;;;;;;;;;5.00;5.00;;;;;24.09;49.29;100425.09;5001843;28;45411;-90
2021/07/24 02:36:03;;;;;;;;;6.00;4.00;;;;;24.11;49.52;100437.25;5034886;28;45531;-90
2021/07/24 02:38:29;;;;;;;;;6.00;5.33;;;;;24.11;49.49;100442.56;5001868;28;45391;-90
2021/07/24 02:40:54;;;;;;;;;3.00;3.00;;;;;24.10;49.14;100443.56;5001478;28;48157;-90
2021/07/24 02:43:19;;;;;;;;;6.00;5.00;;;;;24.06;49.13;100439.50;5034504;28;45454;-90
2021/07/24 02:45:45;;;;;;;;;5.33;5.33;;;;;24.08;49.36;100424.28;5019501;28;45382;-90
2021/07/24 02:48:10;;;;;;;;;5.67;5.33;;;;;24.11;49.30;100420.50;5001950;28;44882;-90
2021/07/24 02:50:36;;;;;;;;;7.00;6.00;;;;;24.11;49.01;100408.03;5001694;28;46941;-90
2021/07/24 02:53:01;;;;;;;;;4.00;4.00;;;;;24.11;49.07;100408.03;5001476;28;45315;-91
2021/07/24 02:55:27;;;;;;;;;3.33;3.33;;;;;24.09;48.76;100415.31;5001659;28;45181;-90
2021/07/24 02:57:52;;;;;;;;;4.00;3.00;;;;;24.08;48.54;100412.81;5019524;28;44739;-91
2021/07/24 03:00:18;;;;;;;;;3.25;3.25;;;;;24.08;48.74;100420.78;5000316;28;48449;-90
2021/07/24 03:02:43;;;;;;;;;4.00;4.00;;;;;24.07;48.42;100437.69;5001277;28;45608;-90
2021/07/24 03:05:09;;;;;;;;;7.00;4.00;;;;;24.07;48.65;100445.66;5001773;28;45533;-91
2021/07/24 03:07:35;;;;;;;;;5.33;4.00;;;;;24.10;48.48;100456.00;5019402;28;45215;-90
2021/07/24 03:10:00;;;;;;;;;3.75;3.75;;;;;24.09;48.08;100457.00;5001804;28;47247;-91
2021/07/24 03:12:25;;;;;;;;;4.00;4.00;;;;;24.10;48.65;100454.19;5001568;28;45460;-90
2021/07/24 03:14:51;;;;;;;;;3.50;3.50;;;;;24.11;48.77;100450.56;5001516;28;45408;-91
2021/07/24 03:17:16;;;;;;;;;3.00;3.00;;;;;24.09;48.87;100449.88;5001578;28;44948;-91
2021/07/24 03:19:41;;;;;;;;;6.00;5.00;;;;;24.06;48.87;100450.13;5018627;28;46687;-91
2021/07/24 03:22:07;;;;;;;;;7.00;5.00;;;;;24.02;48.53;100440.78;5018790;28;45482;-88
2021/07/24 03:24:32;;;;;;;;;4.25;3.50;;;;;23.99;48.94;100451.72;5034478;28;45852;-90
2021/07/24 03:26:58;;;;;;;;;5.25;4.25;;;;;23.94;48.64;100460.16;5001679;28;45196;-91
2021/07/24 03:29:23;;;;;;;;;3.00;3.00;;;;;23.90;48.44;100474.72;5000893;28;48418;-91
2021/07/24 03:31:49;;;;;;;;;4.00;3.33;;;;;23.87;48.81;100485.63;5018969;28;45393;-91
2021/07/24 03:34:15;;;;;;;;;5.67;3.33;;;;;23.82;48.30;100488.75;5001206;28;45482;-90
2021/07/24 03:36:40;;;;;;;;;5.33;5.00;;;;;23.75;48.55;100488.50;5018858;28;45371;-90
2021/07/24 03:39:07;;;;;;;;;4.50;3.25;;;;;23.70;48.84;100484.63;5000566;28;47169;-90
2021/07/24 03:41:35;;;;;;;;;4.00;4.00;;;;;23.58;48.69;100486.63;5017447;28;45839;-90
2021/07/24 03:44:02;;;;;;;;;5.00;3.67;;;;;23.47;49.09;100498.28;5018599;28;45410;-89
2021/07/24 03:46:27;;;;;;;;;4.50;4.50;;;;;23.38;49.82;100512.44;5018839;28;45464;-89
2021/07/24 03:48:54;;;;;;;;;5.25;5.00;;;;;23.33;49.58;100542.06;5000493;28;48050;-90
2021/07/24 03:51:20;;;;;;;;;4.67;4.67;;;;;23.25;49.67;100545.41;5033637;28;45355;-90
2021/07/24 03:53:45;;;;;;;;;4.33;4.33;;;;;23.16;49.84;100544.44;5001167;28;45296;-90
2021/07/24 03:56:18;;;;;;;;;4.33;4.00;;;;;23.08;50.09;100544.31;5001071;28;45309;-90
2021/07/24 03:58:45;;;;;;;;;3.67;3.67;;;;;23.03;50.14;100550.06;5000756;28;48475;-91
2021/07/24 04:01:11;;;;;;;;;5.00;5.00;;;;;22.96;50.29;100571.00;5005499;28;44842;-91
2021/07/24 04:03:36;;;;;;;;;4.33;4.33;;;;;22.89;49.92;100550.47;5017026;28;45279;-91
2021/07/24 04:06:03;;;;;;;;;5.00;3.33;;;;;22.80;50.02;100560.97;5000952;28;45407;-90
2021/07/24 04:08:31;;;;;;;;;6.00;5.00;;;;;22.72;50.02;100574.06;4999957;28;47137;-89
2021/07/24 04:10:56;;;;;;;;;4.00;4.00;;;;;22.69;50.08;100582.31;5017587;28;45323;-89
2021/07/24 04:13:22;;;;;;;;;5.33;4.67;;;;;22.63;50.51;100578.38;5000390;28;45371;-90
2021/07/24 04:15:47;;;;;;;;;5.33;3.67;;;;;22.61;51.10;100566.25;5000634;28;45359;-89
2021/07/24 04:18:12;;;;;;;;;6.00;6.00;;;;;22.58;50.47;100571.84;5000483;28;47379;-91
2021/07/24 04:20:40;;;;;;;;;5.00;5.00;;;;;22.53;50.93;100580.19;5000515;28;45361;-91
2021/07/24 04:23:06;;;;;;;;;6.00;4.33;;;;;22.49;51.36;100579.59;5000582;28;45347;-90
2021/07/24 04:25:31;;;;;;;;;6.67;6.33;;;;;22.45;51.27;100572.88;5000378;28;44867;-89
2021/07/24 04:27:57;;;;;;;;;5.33;5.33;;;;;22.39;51.23;100581.38;4999977;28;48268;-90
2021/07/24 04:30:22;;;;;;;;;3.33;3.00;;;;;22.36;51.41;100585.16;5016813;28;45278;-90
2021/07/24 04:32:48;;;;;;;;;4.33;4.33;;;;;22.31;51.16;100575.94;5000035;28;45499;-90
2021/07/24 04:35:13;;;;;;;;;6.00;4.67;;;;;22.27;51.48;100568.25;5017837;28;45272;-89
2021/07/24 04:37:38;;;;;;;;;5.67;5.67;;;;;22.24;51.58;100567.69;5000093;28;45322;-90
2021/07/24 04:40:05;;;;;;;;;6.33;5.00;;;;;22.20;51.40;100580.38;5000201;28;45435;-90
2021/07/24 04:42:31;;;;;;;;;4.67;4.67;;;;;22.18;51.92;100579.69;5032940;28;45450;-90
2021/07/24 04:44:56;;;;;;;;;5.00;5.00;;;;;22.18;51.81;100576.19;5000285;28;45961;-91
2021/07/24 04:47:22;;;;;;;;;5.67;4.67;;;;;22.14;51.94;100583.56;4999631;28;47281;-90
2021/07/24 04:49:49;;;;;;;;;6.00;6.00;;;;;22.12;52.05;100583.69;5017811;28;45384;-90
2021/07/24 04:52:15;;;;;;;;;5.67;5.33;;;;;22.12;52.00;100596.13;5000077;28;45313;-90
2021/07/24 04:54:41;;;;;;;;;5.67;5.33;;;;;22.10;52.10;100593.59;4999773;28;45357;-90
2021/07/24 04:57:07;;;;;;;;;6.67;5.00;;;;;22.12;52.24;100596.94;4999704;28;47416;-90
2021/07/24 04:59:35;;;;;;;;;5.00;5.00;;;;;22.12;52.97;100609.38;4999716;28;45919;-90
2021/07/24 05:02:01;;;;;;;;;7.00;5.67;;;;;22.06;52.84;100609.88;4999728;28;45401;-91
2021/07/24 05:04:26;;;;;;;;;3.50;3.50;;;;;22.01;53.01;100608.50;5000254;28;44917;-90
2021/07/24 05:06:52;;;;;;;;;6.00;6.00;;;;;21.98;52.80;100621.19;5015872;28;47705;-90
2021/07/24 05:09:17;;;;;;;;;7.00;6.67;;;;;21.92;53.23;100619.03;5017902;28;45351;-90
2021/07/24 05:11:43;;;;;;;;;8.33;6.33;;;;;21.89;54.05;100633.38;5000196;28;45365;-91
2021/07/24 05:14:08;;;;;;;;;9.50;5.00;;;;;21.85;53.66;100634.63;5018365;28;45393;-91
2021/07/24 05:16:33;;;;;;;;;5.67;5.33;;;;;21.82;53.72;100632.22;5014177;28;47391;-91
2021/07/24 05:19:00;;;;;;;;;6.00;5.67;;;;;21.77;53.68;100630.00;5016801;28;45630;-91
2021/07/24 05:21:26;;;;;;;;;7.33;7.00;;;;;21.74;54.10;100628.44;5016764;28;45472;-91
2021/07/24 05:23:51;;;;;;;;;6.33;6.00;;;;;21.72;53.89;100630.38;4999095;28;45493;-90
2021/07/24 05:26:18;;;;;;;;;6.67;6.67;;;;;21.66;54.40;100632.69;5016425;28;47194;-91
2021/07/24 05:28:43;;;;;;;;;8.67;6.00;;;;;21.60;55.22;100634.03;5016243;28;45422;-91
2021/07/24 05:31:18;;;;;;;;;6.00;5.67;;;;;21.58;54.79;100630.69;5016353;28;45371;-91
2021/07/24 05:33:45;;;;;;;;;8.00;8.00;;;;;21.55;54.54;100630.94;5000074;28;45374;-91
2021/07/24 05:36:10;;;;;;;;;5.75;5.75;;;;;21.54;54.93;100634.56;4999123;28;47196;-91
2021/07/24 05:38:37;;;;;;;;;8.75;6.75;;;;;21.49;55.12;100627.84;4999462;28;45575;-90
2021/07/24 05:41:03;;;;;;;;;5.50;5.50;;;;;21.47;54.76;100618.34;4999901;28;45367;-90
2021/07/24 05:43:28;;;;;;;;;8.50;8.50;;;;;21.49;54.52;100619.88;4999663;28;45643;-90
2021/07/24 05:45:53;;;;;;;;;6.00;6.00;;;;;21.47;54.83;100613.91;4999647;28;47158;-91
2021/07/24 05:48:19;;;;;;;;;8.75;8.00;;;;;21.43;55.49;100620.41;4999491;28;45299;-90
2021/07/24 05:50:44;;;;;;;;;11.75;7.00;;;;;21.41;56.15;100619.72;4999822;28;45248;-92
2021/07/24 05:53:10;;;;;;;;;6.25;6.25;;;;;21.38;55.01;100619.94;4999879;28;45221;-91
2021/07/24 05:55:37;;;;;;;;;7.25;5.00;;;;;21.35;55.11;100618.41;4999563;28;47052;-92
2021/07/24 05:58:03;;;;;;;;;9.25;7.25;;;;;21.33;55.46;100630.94;5016884;28;45271;-91
2021/07/24 06:00:28;;;;;;;;;10.50;7.00;;;;;21.29;55.01;100618.91;4999467;28;45382;-91
2021/07/24 06:02:53;;;;;;;;;7.75;6.00;;;;;21.20;55.39;100617.88;4999599;28;45222;-91
2021/07/24 06:05:19;;;;;;;;;6.50;5.50;;;;;21.15;55.76;100622.72;5032560;28;47980;-90
2021/07/24 06:07:45;;;;;;;;;6.25;6.25;;;;;21.13;55.56;100614.09;5017022;28;45495;-91
2021/07/24 06:10:10;;;;;;;;;7.00;6.00;;;;;21.13;55.77;100619.38;5032549;28;45510;-90
2021/07/24 06:12:35;;;;;;;;;7.50;7.00;;;;;21.11;55.82;100612.53;4999262;28;45415;-91
2021/07/24 06:15:01;;;;;;;;;6.50;6.50;;;;;21.08;56.19;100610.97;4999057;28;47230;-91
2021/07/24 06:17:26;;;;;;;;;8.50;5.25;;;;;21.13;56.07;100600.84;5015300;28;45312;-91
2021/07/24 06:19:52;;;;;;;;;7.00;5.00;;;;;21.15;56.02;100606.84;5016718;28;45333;-91
2021/07/24 06:22:17;;;;;;;;;7.00;7.00;;;;;21.21;55.69;100616.09;4999397;28;45421;-91
2021/07/24 06:24:42;;;;;;;;;6.25;6.00;;;;;21.22;55.78;100615.13;4998837;28;46912;-90
2021/07/24 06:27:08;;;;;;;;;7.50;7.00;;;;;21.17;55.66;100609.38;4999207;28;45430;-90
2021/07/24 06:29:33;;;;;;;;;8.00;6.25;;;;;21.15;55.76;100620.06;4999082;28;45510;-91
2021/07/24 06:31:59;;;;;;;;;7.00;5.25;;;;;21.17;56.07;100618.16;4999337;28;45451;-91
2021/07/24 06:34:24;;;;;;;;;6.25;6.00;;;;;21.19;56.01;100618.00;4998810;28;47101;-91
2021/07/24 06:36:49;;;;;;;;;7.25;6.00;;;;;21.25;55.67;100621.97;5002163;28;45512;-90
2021/07/24 06:39:15;;;;;;;;;6.25;5.50;;;;;21.26;55.64;100607.75;5035357;28;45229;-90
2021/07/24 06:41:41;;;;;;;;;4.00;4.00;;;;;21.32;55.61;100607.25;5002805;28;45364;-90
2021/07/24 06:44:07;;;;;;;;;5.25;5.25;;;;;21.36;55.32;100608.66;5001549;28;47377;-90
2021/07/24 06:46:32;;;;;;;;;6.00;6.00;;;;;21.37;55.33;100613.00;5005848;28;45802;-91
2021/07/24 06:48:59;;;;;;;;;9.00;6.00;;;;;21.39;55.17;100620.81;5019839;28;45389;-91
2021/07/24 06:51:24;;;;;;;;;5.75;4.00;;;;;21.37;55.23;100613.00;5020056;28;45435;-91
2021/07/24 06:53:50;;;;;;;;;5.25;5.00;;;;;21.41;54.75;100613.56;5001768;28;47152;-91
2021/07/24 06:56:15;;;;;;;;;9.25;6.00;;;;;21.42;54.93;100617.91;5001466;28;45320;-91
2021/07/24 06:58:41;;;;;;;;;7.00;5.25;;;;;21.44;54.81;100611.50;5035405;28;45449;-90
2021/07/24 07:01:07;;;;;;;;;2.00;2.00;;;;;21.51;55.22;100618.94;5020122;28;45335;-91
2021/07/24 07:03:33;;;;;;;;;6.00;5.00;;;;;21.49;54.46;100617.25;5001728;28;47201;-90
2021/07/24 07:05:59;;;;;;;;;4.00;4.00;;;;;21.53;54.86;100617.00;5003305;28;46156;-91
2021/07/24 07:08:24;;;;;;;;;5.00;5.00;;;;;21.53;54.51;100611.69;5035507;28;45569;-91
2021/07/24 07:10:50;;;;;;;;;6.00;6.00;;;;;21.55;54.77;100617.69;5002027;28;45321;-90
2021/07/24 07:13:15;;;;;;;;;4.00;4.00;;;;;21.56;54.60;100617.56;5001580;28;47020;-90
2021/07/24 07:15:40;;;;;;;;;6.00;5.00;;;;;21.57;54.69;100618.41;5001711;28;45374;-91
2021/07/24 07:18:06;;;;;;;;;6.75;5.50;;;;;21.55;54.15;100613.25;5002013;28;45186;-91
2021/07/24 07:20:31;;;;;;;;;6.50;6.00;;;;;21.53;54.35;100617.84;5002264;28;45284;-91
2021/07/24 07:22:57;;;;;;;;;5.75;4.00;;;;;21.55;54.08;100615.91;5001610;28;47226;-92
2021/07/24 07:25:22;;;;;;;;;1.33;0.00;;;;;21.53;53.67;100617.84;5014286;28;45408;-91
2021/07/24 07:27:47;;;;;;;;;3.00;2.75;;;;;21.52;54.17;100618.78;5008184;28;45272;-90
2021/07/24 07:30:13;;;;;;;;;4.33;3.33;;;;;21.54;54.16;100618.66;5018631;28;45462;-89
2021/07/24 07:32:39;;;;;;;;;4.67;4.00;;;;;21.54;54.41;100611.59;5001089;28;47345;-90
2021/07/24 07:35:06;;;;;;;;;4.67;4.67;;;;;21.62;54.02;100618.88;5000980;28;45425;-92
2021/07/24 07:37:31;;;;;;;;;5.00;5.00;;;;;21.69;54.10;100617.38;4993943;28;45452;-90
2021/07/24 07:39:57;;;;;;;;;4.00;3.75;;;;;21.70;53.71;100623.53;5000884;28;45351;-90
2021/07/24 07:42:22;;;;;;;;;5.00;3.75;;;;;21.74;53.79;100622.28;5000537;28;47340;-91
2021/07/24 07:44:48;;;;;;;;;4.00;3.33;;;;;21.83;53.98;100626.81;5018421;28;45261;-91
2021/07/24 07:47:13;;;;;;;;;5.75;4.75;;;;;21.87;53.41;100625.59;5000468;28;44780;-89
2021/07/24 07:49:39;;;;;;;;;3.33;3.33;;;;;21.91;53.61;100623.50;5005535;28;45542;-91
2021/07/24 07:52:06;;;;;;;;;4.67;4.67;;;;;21.99;53.38;100630.78;4999858;28;47544;-91
2021/07/24 07:54:33;;;;;;;;;6.33;5.00;;;;;21.99;52.83;100625.50;4983002;28;45647;-91
2021/07/24 07:57:01;;;;;;;;;6.25;5.50;;;;;22.01;53.35;100629.69;4997774;28;45619;-91
2021/07/24 07:59:27;;;;;;;;;5.25;4.00;;;;;22.03;53.14;100618.94;4997283;28;45494;-90
2021/07/24 08:01:52;;;;;;;;;4.00;3.25;;;;;22.08;53.04;100623.84;5011287;28;46133;-91
2021/07/24 08:04:18;;;;;;;;;5.75;5.00;;;;;22.10;53.29;100621.91;5011956;28;45561;-90
2021/07/24 08:06:43;;;;;;;;;5.00;4.67;;;;;22.12;52.63;100627.94;5001002;28;45409;-90
2021/07/24 08:09:09;;;;;;;;;6.00;4.25;;;;;22.12;52.61;100619.97;4999861;28;45092;-89
2021/07/24 08:11:34;;;;;;;;;5.33;3.00;;;;;22.15;52.36;100620.53;4997524;28;47542;-91
2021/07/24 08:14:01;;;;;;;;;4.67;3.33;;;;;22.23;53.20;100622.53;4998501;28;45222;-91
2021/07/24 08:16:26;;;;;;;;;5.50;4.25;;;;;22.31;52.20;100613.06;4997696;28;45298;-91
2021/07/24 08:18:52;;;;;;;;;4.67;2.00;;;;;22.36;52.10;100619.59;4998975;28;45249;-91
2021/07/24 08:21:17;;;;;;;;;5.67;3.00;;;;;22.41;52.02;100613.91;5000425;28;47528;-90
2021/07/24 08:23:42;;;;;;;;;2.00;2.00;;;;;22.48;51.92;100619.50;5000489;28;45679;-90
2021/07/24 08:26:08;;;;;;;;;8.00;5.00;;;;;22.52;51.75;100616.50;5018904;28;45231;-91
2021/07/24 08:28:33;;;;;;;;;6.00;4.75;;;;;22.54;51.87;100606.56;4990665;28;45416;-91
2021/07/24 08:31:00;;;;;;;;;4.00;4.00;;;;;22.59;51.69;100611.44;4992149;28;48312;-91
2021/07/24 08:33:26;;;;;;;;;4.50;4.25;;;;;22.63;51.41;100606.75;4981154;28;45435;-91
2021/07/24 08:35:52;;;;;;;;;4.00;4.00;;;;;22.69;51.01;100607.00;4985171;28;46725;-91
2021/07/24 08:38:17;;;;;;;;;1.50;1.50;;;;;22.73;51.20;100607.56;4997203;28;45478;-91
2021/07/24 08:40:47;;;;;;;;;2.25;1.75;;;;;22.80;50.23;100608.72;4986302;28;47261;-91
2021/07/24 08:43:12;;;;;;;;;4.67;3.67;;;;;22.82;50.61;100600.63;4990857;28;45344;-90
2021/07/24 08:45:38;;;;;;;;;4.00;3.33;;;;;22.85;50.50;100595.00;4996932;28;45446;-91
2021/07/24 08:48:04;;;;;;;;;3.33;2.33;;;;;22.91;50.22;100590.97;4997365;28;44866;-90
2021/07/24 08:50:31;;;;;;;;;4.33;2.33;;;;;22.97;50.32;100598.38;4996003;28;47236;-90
2021/07/24 08:53:03;;;;;;;;;3.67;3.67;;;;;23.07;50.66;100591.25;5031177;28;45792;-90
2021/07/24 08:55:29;;;;;;;;;5.33;3.33;;;;;23.14;50.00;100596.81;4999952;28;45390;-91
2021/07/24 08:57:58;;;;;;;;;4.00;3.00;;;;;23.21;49.95;100589.13;5017112;28;45437;-90
2021/07/24 09:00:26;;;;;;;;;3.33;2.33;;;;;23.30;49.62;100590.09;4988111;28;47369;-91
2021/07/24 09:02:53;;;;;;;;;3.67;3.33;;;;;23.38;49.82;100595.56;4998018;28;45569;-90
2021/07/24 09:05:19;;;;;;;;;3.00;2.00;;;;;23.48;50.03;100598.19;5017202;28;45292;-91
2021/07/24 09:07:46;;;;;;;;;4.00;3.50;;;;;23.57;49.31;100597.34;5017191;28;45332;-91
2021/07/24 09:10:13;;;;;;;;;2.25;2.00;;;;;23.66;48.38;100606.28;5017443;28;46484;-91
2021/07/24 09:12:40;;;;;;;;;1.33;0.00;;;;;23.71;47.93;100613.78;4998992;28;45797;-91
2021/07/24 09:15:07;;;;;;;;;4.00;2.00;;;;;23.76;47.99;100599.06;4989872;28;45242;-90
2021/07/24 09:17:33;;;;;;;;;3.50;2.25;;;;;23.84;47.98;100610.81;5000261;28;45750;-90
2021/07/24 09:19:59;;;;;;;;;2.33;2.33;;;;;23.90;47.50;100610.22;5015651;28;47166;-90
2021/07/24 09:22:29;;;;;;;;;2.50;2.00;;;;;23.96;47.06;100609.66;5025273;28;45362;-91
2021/07/24 09:25:08;;;;;;;;;2.00;1.00;;;;;24.05;46.94;100607.94;4998563;28;45394;-90
2021/07/24 09:27:41;;;;;;;;;4.00;2.00;;;;;24.11;47.28;100599.38;5006971;28;45253;-90
2021/07/24 09:30:10;;;;;;;;;4.33;3.67;;;;;24.20;47.27;100599.50;4998598;28;47322;-90
2021/07/24 09:32:36;;;;;;;;;2.33;2.33;;;;;24.26;46.86;100599.72;5015744;28;46176;-90
2021/07/24 09:35:02;;;;;;;;;3.25;2.00;;;;;24.35;46.50;100602.50;4996198;28;45503;-91
2021/07/24 09:37:29;;;;;;;;;4.67;2.00;;;;;24.42;46.60;100598.25;4998339;28;45494;-90
2021/07/24 09:39:57;;;;;;;;;4.33;2.67;;;;;24.52;46.47;100596.34;5017140;28;45524;-91
2021/07/24 09:42:31;;;;;;;;;3.00;2.00;;;;;24.60;46.75;100589.44;5015402;28;45256;-90
2021/07/24 09:45:09;;;;;;;;;3.00;3.00;;;;;24.73;45.98;100594.38;4999809;28;45322;-91
2021/07/24 09:47:36;;;;;;;;;0.00;0.00;;;;;24.73;45.85;100595.25;4988171;28;45446;-91
2021/07/24 09:50:16;;;;;;;;;3.00;3.00;;;;;24.79;45.96;100599.09;4988474;28;47417;-91
2021/07/24 09:52:47;;;;;;;;;2.00;2.00;;;;;24.92;46.29;100610.25;4993415;28;46053;-90
2021/07/24 09:55:23;;;;;;;;;2.33;2.33;;;;;25.04;45.85;100600.19;4997004;28;45259;-91
2021/07/24 09:57:51;;;;;;;;;1.00;1.00;;;;;25.18;45.63;100596.13;4998712;28;45682;-90
2021/07/24 10:00:27;;;;;;;;;1.67;1.67;;;;;25.33;45.45;100607.03;4997091;28;47128;-90
2021/07/24 10:03:04;;;;;;;;;2.33;1.00;;;;;25.42;45.42;100601.78;5013069;28;45580;-91
2021/07/24 10:05:35;;;;;;;;;4.00;2.00;;;;;25.56;45.39;100609.25;4998668;28;45376;-90
2021/07/24 10:08:11;;;;;;;;;2.00;2.00;;;;;25.70;45.06;100601.66;5013304;28;45452;-91
2021/07/24 10:10:39;;;;;;;;;2.00;2.00;;;;;25.87;44.79;100613.25;4999069;28;45470;-90
2021/07/24 10:13:09;;;;;;;;;4.33;2.00;;;;;25.99;43.81;100611.13;5009774;28;45479;-90
2021/07/24 10:15:37;;;;;;;;;4.00;4.00;;;;;26.07;44.62;100616.50;4995084;28;45432;-91
2021/07/24 10:18:04;;;;;;;;;4.00;4.00;;;;;26.18;43.71;100614.50;5000749;28;45336;-90
2021/07/24 10:20:30;;;;;;;;;4.00;3.67;;;;;26.28;44.58;100620.59;4982423;28;47110;-90
2021/07/24 10:22:56;;;;;;;;;3.33;2.67;;;;;26.36;43.67;100623.28;5014850;28;44955;-90
2021/07/24 10:25:22;;;;;;;;;3.00;3.00;;;;;26.41;43.85;100617.47;5001599;28;45378;-91
2021/07/24 10:27:50;;;;;;;;;4.33;3.00;;;;;26.47;42.83;100618.66;5001869;28;45773;-92
2021/07/24 10:30:25;;;;;;;;;3.67;2.00;;;;;26.41;42.40;100612.97;5001930;28;47315;-91
2021/07/24 10:32:52;;;;;;;;;2.00;2.00;;;;;26.42;43.48;100608.44;5014853;28;45644;-91
2021/07/24 10:35:35;;;;;;;;;2.67;2.00;;;;;26.52;43.52;100609.16;5003810;28;45450;-91
2021/07/24 10:38:30;;;;;;;;;3.67;2.00;;;;;26.67;43.42;100606.66;4999034;28;45490;-91
2021/07/24 10:41:23;;;;;;;;;3.67;1.67;;;;;26.86;43.01;100607.38;5002117;28;45299;-92
2021/07/24 10:44:04;;;;;;;;;2.33;2.33;;;;;26.98;42.17;100599.88;5018618;28;45468;-92
2021/07/24 10:46:41;;;;;;;;;3.67;3.00;;;;;27.14;42.40;100600.88;5002606;28;45500;-91
2021/07/24 10:49:22;;;;;;;;;3.00;2.33;;;;;27.23;41.94;100601.69;5019888;28;45514;-91
2021/07/24 10:51:54;;;;;;;;;2.00;2.00;;;;;27.30;41.57;100602.72;4988215;28;47160;-91
2021/07/24 10:54:20;;;;;;;;;3.33;2.00;;;;;27.37;41.50;100595.69;4996300;28;45707;-90
2021/07/24 10:56:46;;;;;;;;;2.67;2.00;;;;;27.38;41.13;100586.66;5000038;28;45308;-92
2021/07/24 10:59:22;;;;;;;;;2.67;1.67;;;;;27.43;40.95;100586.13;5001726;28;45700;-90
2021/07/24 11:01:51;;;;;;;;;2.67;1.67;;;;;27.51;41.00;100580.78;5018012;28;47755;-91
2021/07/24 11:04:37;;;;;;;;;1.33;0.33;;;;;27.64;40.61;100590.97;5017762;28;45541;-91
2021/07/24 11:07:12;;;;;;;;;4.33;2.00;;;;;27.71;40.29;100591.94;5016057;28;44759;-91
2021/07/24 11:09:38;;;;;;;;;3.33;2.00;;;;;27.74;40.22;100580.94;5017489;28;45296;-90
2021/07/24 11:12:06;;;;;;;;;2.67;1.67;;;;;27.82;40.56;100587.25;4997318;28;47238;-91
2021/07/24 11:14:38;;;;;;;;;4.00;3.00;;;;;27.86;40.48;100589.38;5016509;28;45568;-92
2021/07/24 11:17:11;;;;;;;;;2.33;2.33;;;;;27.79;40.32;100593.75;5020869;28;45455;-89
2021/07/24 11:19:40;;;;;;;;;3.00;2.00;;;;;27.73;39.58;100597.13;5015480;28;45750;-90
2021/07/24 11:22:26;;;;;;;;;2.33;2.00;;;;;27.61;39.20;100596.66;4995681;28;47323;-89
2021/07/24 11:24:51;;;;;;;;;3.00;1.00;;;;;27.47;39.96;100591.00;5015723;28;45430;-90
2021/07/24 11:27:29;;;;;;;;;2.67;1.67;;;;;27.33;40.12;100592.53;5003404;28;45604;-90